createdAt,value
2023-03-10T00:01:57.051Z,9.99
2023-03-10T00:04:29.536Z,9.98
2023-03-10T00:07:01.855Z,9.88
2023-03-10T00:09:34.145Z,9.92
2023-03-10T00:12:07.394Z,9.93
2023-03-10T00:14:40.484Z,9.91
2023-03-10T00:17:12.755Z,9.90
2023-03-10T00:19:45.261Z,9.88
2023-03-10T00:22:17.550Z,9.87
2023-03-10T00:24:49.822Z,9.88
2023-03-10T00:27:22.114Z,9.91
2023-03-10T00:29:55.978Z,9.89
2023-03-10T00:32:28.403Z,9.91
2023-03-10T00:35:00.918Z,9.86
2023-03-10T00:37:36.751Z,9.91
2023-03-10T00:40:11.483Z,9.93
2023-03-10T00:42:44.415Z,9.88
2023-03-10T00:45:18.074Z,9.91
2023-03-10T00:47:50.367Z,9.92
2023-03-10T00:50:23.153Z,9.72
2023-03-10T00:52:55.512Z,9.84
2023-03-10T00:55:27.822Z,9.87
2023-03-10T00:58:00.222Z,9.89
2023-03-10T01:00:33.721Z,9.91
2023-03-10T01:03:06.030Z,9.93
2023-03-10T01:05:38.324Z,9.92
2023-03-10T01:08:10.592Z,9.91
2023-03-10T01:10:43.091Z,9.91
2023-03-10T01:13:16.450Z,9.92
2023-03-10T01:15:50.311Z,9.87
2023-03-10T01:18:22.929Z,9.90
2023-03-10T01:20:55.276Z,9.86
2023-03-10T01:23:27.968Z,9.65
2023-03-10T01:26:00.385Z,9.72
2023-03-10T01:28:32.643Z,9.70
2023-03-10T01:31:07.266Z,9.67
2023-03-10T01:33:40.682Z,9.66
2023-03-10T01:36:15.843Z,9.62
2023-03-10T01:38:51.078Z,9.53
2023-03-10T01:41:23.397Z,9.56
2023-03-10T01:43:57.926Z,9.51
2023-03-10T01:46:50.457Z,9.30
2023-03-10T01:49:40.363Z,9.36
2023-03-10T01:52:15.943Z,9.27
2023-03-10T01:54:52.346Z,9.13
2023-03-10T01:57:29.507Z,9.23
2023-03-10T02:00:05.432Z,9.22
2023-03-10T02:02:54.980Z,9.21
2023-03-10T02:05:29.400Z,9.16
2023-03-10T02:08:03.004Z,9.10
2023-03-10T02:10:35.841Z,9.08
2023-03-10T02:13:08.219Z,8.96
2023-03-10T02:15:41.008Z,8.88
2023-03-10T02:18:16.479Z,8.81
2023-03-10T02:20:57.409Z,8.74
2023-03-10T02:23:36.391Z,8.73
2023-03-10T02:26:18.523Z,8.62
2023-03-10T02:28:54.583Z,8.61
2023-03-10T02:31:27.815Z,8.56
2023-03-10T02:34:01.329Z,8.61
2023-03-10T02:36:33.698Z,8.53
2023-03-10T02:39:06.082Z,8.53
2023-03-10T02:41:39.788Z,8.57
2023-03-10T02:44:19.014Z,8.57
2023-03-10T02:46:51.325Z,8.56
2023-03-10T02:49:24.943Z,8.48
2023-03-10T02:52:00.933Z,8.55
2023-03-10T02:54:33.610Z,8.58
2023-03-10T02:57:06.033Z,8.53
2023-03-10T02:59:39.368Z,8.53
2023-03-10T03:02:11.752Z,8.51
2023-03-10T03:04:44.564Z,8.51
2023-03-10T03:07:16.983Z,8.45
2023-03-10T03:09:49.955Z,8.42
2023-03-10T03:12:22.301Z,8.39
2023-03-10T03:14:55.374Z,8.41
2023-03-10T03:17:28.445Z,8.39
2023-03-10T03:20:01.055Z,8.46
2023-03-10T03:22:33.348Z,8.45
2023-03-10T03:25:06.234Z,8.42
2023-03-10T03:27:39.132Z,8.37
2023-03-10T03:30:16.289Z,8.45
2023-03-10T03:32:49.292Z,8.42
2023-03-10T03:35:25.233Z,8.44
2023-03-10T03:37:57.986Z,8.49
2023-03-10T03:40:33.375Z,8.50
2023-03-10T03:43:06.314Z,8.44
2023-03-10T03:45:41.095Z,8.40
2023-03-10T03:48:13.849Z,8.46
2023-03-10T03:50:54.274Z,8.48
2023-03-10T03:53:35.610Z,8.52
2023-03-10T03:56:08.950Z,8.50
2023-03-10T03:58:43.371Z,8.49
2023-03-10T04:01:17.255Z,8.50
2023-03-10T04:03:54.490Z,8.42
2023-03-10T04:06:27.560Z,8.46
2023-03-10T04:09:00.296Z,8.47
2023-03-10T04:11:34.807Z,8.41
2023-03-10T04:14:07.504Z,8.43
2023-03-10T04:16:40.783Z,8.40
2023-03-10T04:19:13.690Z,8.45
2023-03-10T04:21:49.764Z,8.23
2023-03-10T04:24:23.297Z,8.25
2023-03-10T04:26:55.633Z,8.27
2023-03-10T04:29:28.165Z,8.22
2023-03-10T04:32:05.853Z,8.24
2023-03-10T04:34:42.592Z,8.25
2023-03-10T04:37:16.633Z,8.28
2023-03-10T04:39:49.130Z,8.22
2023-03-10T04:42:21.541Z,8.23
2023-03-10T04:44:53.920Z,8.11
2023-03-10T04:47:27.794Z,8.08
2023-03-10T04:50:00.130Z,8.12
2023-03-10T04:52:33.441Z,7.95
2023-03-10T04:55:06.810Z,7.95
2023-03-10T04:57:39.292Z,7.91
2023-03-10T05:00:13.033Z,7.96
2023-03-10T05:02:47.291Z,7.97
2023-03-10T05:05:19.920Z,8.01
2023-03-10T05:07:52.761Z,7.99
2023-03-10T05:10:25.472Z,7.92
2023-03-10T05:12:57.770Z,7.85
2023-03-10T05:15:33.540Z,7.91
2023-03-10T05:18:07.491Z,7.84
2023-03-10T05:20:40.464Z,7.84
2023-03-10T05:23:12.953Z,7.83
2023-03-10T05:25:45.305Z,7.76
2023-03-10T05:28:19.197Z,7.78
2023-03-10T05:30:51.627Z,7.81
2023-03-10T05:33:24.986Z,7.82
2023-03-10T05:35:57.922Z,7.80
2023-03-10T05:38:30.450Z,7.74
2023-03-10T05:41:06.394Z,7.75
2023-03-10T05:43:39.388Z,7.72
2023-03-10T05:46:13.137Z,7.76
2023-03-10T05:48:51.805Z,7.76
2023-03-10T05:51:24.382Z,7.78
2023-03-10T05:53:56.910Z,7.84
2023-03-10T05:56:32.877Z,7.81
2023-03-10T05:59:07.475Z,7.84
2023-03-10T06:01:41.565Z,7.90
2023-03-10T06:04:14.567Z,7.88
2023-03-10T06:06:46.928Z,7.92
2023-03-10T06:09:19.226Z,8.01
2023-03-10T06:11:51.544Z,8.08
2023-03-10T06:14:24.722Z,8.16
2023-03-10T06:16:57.288Z,8.20
2023-03-10T06:19:30.235Z,8.24
2023-03-10T06:22:02.555Z,8.30
2023-03-10T06:24:34.833Z,8.41
2023-03-10T06:27:07.131Z,8.52
2023-03-10T06:29:39.437Z,8.62
2023-03-10T06:32:11.864Z,8.72
2023-03-10T06:34:44.851Z,8.82
2023-03-10T06:37:17.481Z,8.94
2023-03-10T06:39:49.819Z,9.09
2023-03-10T06:42:22.160Z,9.16
2023-03-10T06:44:55.042Z,9.21
2023-03-10T06:47:27.286Z,9.39
2023-03-10T06:50:01.942Z,9.49
2023-03-10T06:52:34.949Z,9.62
2023-03-10T06:55:08.113Z,9.70
2023-03-10T06:57:40.664Z,9.82
2023-03-10T07:00:15.124Z,9.87
2023-03-10T07:02:47.516Z,9.99
2023-03-10T07:05:22.342Z,10.11
2023-03-10T07:07:54.728Z,10.19
2023-03-10T07:10:27.177Z,10.08
2023-03-10T07:12:59.542Z,10.11
2023-03-10T07:15:32.580Z,10.30
2023-03-10T07:18:04.906Z,10.20
2023-03-10T07:20:40.651Z,10.37
2023-03-10T07:23:14.033Z,10.55
2023-03-10T07:25:46.498Z,10.63
2023-03-10T07:28:18.877Z,10.69
2023-03-10T07:30:51.624Z,10.85
2023-03-10T07:33:24.054Z,10.97
2023-03-10T07:35:57.065Z,11.14
2023-03-10T07:38:29.396Z,11.21
2023-03-10T07:41:06.212Z,11.39
2023-03-10T07:43:38.553Z,11.47
2023-03-10T07:46:12.914Z,11.54
2023-03-10T07:48:45.322Z,11.69
2023-03-10T07:51:18.430Z,11.77
2023-03-10T07:53:50.764Z,11.95
2023-03-10T07:56:23.061Z,12.00
2023-03-10T07:58:55.313Z,12.14
2023-03-10T08:01:27.708Z,12.31
2023-03-10T08:04:00.395Z,12.43
2023-03-10T08:06:34.506Z,12.48
2023-03-10T08:09:06.790Z,12.69
2023-03-10T08:11:39.366Z,12.80
2023-03-10T08:14:11.685Z,13.00
2023-03-10T08:16:43.991Z,13.08
2023-03-10T08:19:16.453Z,13.31
2023-03-10T08:21:49.538Z,13.44
2023-03-10T08:24:21.863Z,13.55
2023-03-10T08:26:54.184Z,13.51
2023-03-10T08:29:26.534Z,13.55
2023-03-10T08:31:58.987Z,13.46
2023-03-10T08:34:32.427Z,13.75
2023-03-10T08:37:05.462Z,13.88
2023-03-10T08:39:38.896Z,14.03
2023-03-10T08:42:11.920Z,14.23
2023-03-10T08:44:44.455Z,14.40
2023-03-10T08:47:16.761Z,14.43
2023-03-10T08:49:49.253Z,14.17
2023-03-10T08:52:23.581Z,14.21
2023-03-10T08:54:58.196Z,14.26
2023-03-10T08:57:31.886Z,14.32
2023-03-10T09:00:05.666Z,14.46
2023-03-10T09:02:38.393Z,14.57
2023-03-10T09:05:11.001Z,14.43
2023-03-10T09:07:44.209Z,14.20
2023-03-10T09:10:16.613Z,14.37
2023-03-10T09:12:48.914Z,14.25
2023-03-10T09:15:22.055Z,14.30
2023-03-10T09:17:54.964Z,14.07
2023-03-10T09:20:29.387Z,14.15
2023-03-10T09:23:02.918Z,14.06
2023-03-10T09:25:35.414Z,14.27
2023-03-10T09:28:08.313Z,14.36
2023-03-10T09:30:42.304Z,14.44
2023-03-10T09:33:16.843Z,14.13
2023-03-10T09:36:05.960Z,14.28
2023-03-10T09:38:41.351Z,14.28
2023-03-10T09:41:36.335Z,14.11
2023-03-10T09:44:23.049Z,13.83
2023-03-10T09:47:11.703Z,13.90
2023-03-10T09:49:53.837Z,13.77
2023-03-10T09:52:32.839Z,13.73
2023-03-10T09:55:18.152Z,13.81
2023-03-10T09:57:52.910Z,13.80
2023-03-10T10:00:29.114Z,13.82
2023-03-10T10:03:07.877Z,13.62
2023-03-10T10:05:42.087Z,13.59
2023-03-10T10:08:20.750Z,13.41
2023-03-10T10:10:55.629Z,13.25
2023-03-10T10:13:30.019Z,13.28
2023-03-10T10:16:28.111Z,13.35
2023-03-10T10:19:12.164Z,12.89
2023-03-10T10:21:51.746Z,13.16
2023-03-10T10:24:24.182Z,12.99
2023-03-10T10:26:57.197Z,12.91
2023-03-10T10:29:34.012Z,12.81
2023-03-10T10:32:08.923Z,12.79
2023-03-10T10:34:42.836Z,12.66
2023-03-10T10:37:29.166Z,12.51
2023-03-10T10:40:03.748Z,12.42
2023-03-10T10:42:37.329Z,12.15
2023-03-10T10:45:24.474Z,12.00
2023-03-10T10:47:57.244Z,11.93
2023-03-10T10:50:31.527Z,11.92
2023-03-10T10:53:20.281Z,11.77
2023-03-10T10:56:01.477Z,11.51
2023-03-10T10:58:35.961Z,11.36
2023-03-10T11:01:11.768Z,11.46
2023-03-10T11:03:47.236Z,11.51
2023-03-10T11:06:26.345Z,11.58
2023-03-10T11:09:04.296Z,11.25
2023-03-10T11:11:44.986Z,11.47
2023-03-10T11:14:42.570Z,11.22
2023-03-10T11:17:22.394Z,11.32
2023-03-10T11:20:01.269Z,11.24
2023-03-10T11:22:39.526Z,11.21
2023-03-10T11:25:23.826Z,10.82
2023-03-10T11:28:10.238Z,10.48
2023-03-10T11:30:48.831Z,10.48
2023-03-10T11:33:27.847Z,10.30
2023-03-10T11:36:10.843Z,10.09
2023-03-10T11:38:46.318Z,9.96
2023-03-10T11:41:23.642Z,9.84
2023-03-10T11:44:00.127Z,9.65
2023-03-10T11:46:39.112Z,9.72
2023-03-10T11:49:14.032Z,9.72
2023-03-10T11:51:50.515Z,9.59
2023-03-10T11:54:26.991Z,9.65
2023-03-10T11:57:02.075Z,9.73
2023-03-10T11:59:41.402Z,9.90
2023-03-10T12:02:21.327Z,9.99
2023-03-10T12:04:59.248Z,9.90
2023-03-10T12:07:35.864Z,9.84
2023-03-10T12:10:15.670Z,9.79
2023-03-10T12:12:48.305Z,9.88
2023-03-10T12:15:24.814Z,9.80
2023-03-10T12:17:58.268Z,9.80
2023-03-10T12:20:32.892Z,9.95
2023-03-10T12:23:29.572Z,10.11
2023-03-10T12:26:01.874Z,10.19
2023-03-10T12:28:34.448Z,10.28
2023-03-10T12:31:09.810Z,10.36
2023-03-10T12:33:50.113Z,10.46
2023-03-10T12:36:36.698Z,10.61
2023-03-10T12:39:31.236Z,10.77
2023-03-10T12:42:04.550Z,10.88
2023-03-10T12:44:46.405Z,11.11
2023-03-10T12:47:35.297Z,11.27
2023-03-10T12:50:26.111Z,11.26
2023-03-10T12:53:07.207Z,11.22
2023-03-10T12:55:41.674Z,11.14
2023-03-10T12:58:20.421Z,11.20
2023-03-10T13:00:57.918Z,11.26
2023-03-10T13:03:35.091Z,11.38
2023-03-10T13:06:21.433Z,11.24
2023-03-10T13:08:57.962Z,11.36
2023-03-10T13:11:35.496Z,11.32
2023-03-10T13:14:12.917Z,11.25
2023-03-10T13:16:53.388Z,11.27
2023-03-10T13:19:28.372Z,11.28
2023-03-10T13:22:04.064Z,11.32
2023-03-10T13:24:37.700Z,11.25
2023-03-10T13:27:13.997Z,11.44
2023-03-10T13:29:55.049Z,11.52
2023-03-10T13:32:28.447Z,11.48
2023-03-10T13:35:20.633Z,11.45
2023-03-10T13:38:09.878Z,11.53
2023-03-10T13:40:44.424Z,11.56
2023-03-10T13:43:33.437Z,11.55
2023-03-10T13:46:13.619Z,11.57
2023-03-10T13:48:47.233Z,11.51
2023-03-10T13:51:21.665Z,11.49
2023-03-10T13:53:57.982Z,11.58
2023-03-10T13:56:35.652Z,11.50
2023-03-10T13:59:14.686Z,11.48
2023-03-10T14:01:49.620Z,11.45
2023-03-10T14:04:41.503Z,11.52
2023-03-10T14:07:17.633Z,11.40
2023-03-10T14:10:13.172Z,11.27
2023-03-10T14:12:47.288Z,11.41
2023-03-10T14:15:24.570Z,11.41
2023-03-10T14:18:19.163Z,11.52
2023-03-10T14:20:51.516Z,11.39
2023-03-10T14:23:36.422Z,11.39
2023-03-10T14:26:16.364Z,11.32
2023-03-10T14:28:48.777Z,11.33
2023-03-10T14:31:23.164Z,11.28
2023-03-10T14:33:55.564Z,11.35
2023-03-10T14:36:27.860Z,11.33
2023-03-10T14:39:00.149Z,11.32
2023-03-10T14:41:33.708Z,11.37
2023-03-10T14:44:06.132Z,11.35
2023-03-10T14:46:38.576Z,11.36
2023-03-10T14:49:14.611Z,11.48
2023-03-10T14:51:46.895Z,11.28
2023-03-10T14:54:21.332Z,11.20
2023-03-10T14:56:58.382Z,11.22
2023-03-10T14:59:30.721Z,11.32
2023-03-10T15:02:06.840Z,11.19
2023-03-10T15:04:39.412Z,11.31
2023-03-10T15:07:12.011Z,11.33
2023-03-10T15:09:44.699Z,10.95
2023-03-10T15:12:17.664Z,10.90
2023-03-10T15:14:53.328Z,10.85
2023-03-10T15:17:25.652Z,10.44
2023-03-10T15:19:57.911Z,10.52
2023-03-10T15:22:30.273Z,10.17
2023-03-10T15:25:03.799Z,9.82
2023-03-10T15:27:36.851Z,9.68
2023-03-10T15:30:17.067Z,9.40
2023-03-10T15:32:49.704Z,9.42
2023-03-10T15:35:22.794Z,9.26
2023-03-10T15:37:56.420Z,9.35
2023-03-10T15:40:31.398Z,9.48
2023-03-10T15:43:04.481Z,9.51
2023-03-10T15:45:40.431Z,9.38
2023-03-10T15:48:12.816Z,9.32
2023-03-10T15:50:46.557Z,9.18
2023-03-10T15:53:18.878Z,9.30
2023-03-10T15:55:51.925Z,9.24
2023-03-10T15:58:24.969Z,9.11
2023-03-10T16:00:57.315Z,9.39
2023-03-10T16:03:29.740Z,9.35
2023-03-10T16:06:02.027Z,9.48
2023-03-10T16:08:36.730Z,9.49
2023-03-10T16:11:17.121Z,9.48
2023-03-10T16:13:50.044Z,9.33
2023-03-10T16:16:22.902Z,9.40
2023-03-10T16:18:55.597Z,9.35
2023-03-10T16:21:28.237Z,9.36
2023-03-10T16:24:01.001Z,9.37
2023-03-10T16:26:33.748Z,9.27
2023-03-10T16:29:06.779Z,9.41
2023-03-10T16:31:39.647Z,9.40
2023-03-10T16:34:12.076Z,9.33
2023-03-10T16:36:44.603Z,9.45
2023-03-10T16:39:17.940Z,9.56
2023-03-10T16:41:50.560Z,9.48
2023-03-10T16:44:23.722Z,9.60
2023-03-10T16:46:56.013Z,9.66
2023-03-10T16:49:31.297Z,9.66
2023-03-10T16:52:07.143Z,9.72
2023-03-10T16:54:39.406Z,9.74
2023-03-10T16:57:12.396Z,9.70
2023-03-10T16:59:45.734Z,9.79
2023-03-10T17:02:17.971Z,9.84
2023-03-10T17:04:50.334Z,9.85
2023-03-10T17:07:22.663Z,9.88
2023-03-10T17:09:55.353Z,9.83
2023-03-10T17:12:28.013Z,9.63
2023-03-10T17:15:01.441Z,9.76
2023-03-10T17:17:33.707Z,9.56
2023-03-10T17:20:07.363Z,9.63
2023-03-10T17:22:40.077Z,9.64
2023-03-10T17:25:13.773Z,9.60
2023-03-10T17:27:47.382Z,9.61
2023-03-10T17:30:20.607Z,9.54
2023-03-10T17:32:52.872Z,9.56
2023-03-10T17:35:25.450Z,9.61
2023-03-10T17:37:57.774Z,9.62
2023-03-10T17:40:30.072Z,9.54
2023-03-10T17:43:13.149Z,9.55
2023-03-10T17:45:58.428Z,9.62
2023-03-10T17:48:31.910Z,9.58
2023-03-10T17:51:04.635Z,9.58
2023-03-10T17:53:37.149Z,9.72
2023-03-10T17:56:10.028Z,9.59
2023-03-10T17:58:42.923Z,9.62
2023-03-10T18:01:18.476Z,9.61
2023-03-10T18:03:50.816Z,9.70
2023-03-10T18:06:24.855Z,9.74
2023-03-10T18:08:58.614Z,9.84
2023-03-10T18:11:31.750Z,9.82
2023-03-10T18:14:04.508Z,9.91
2023-03-10T18:16:39.359Z,9.91
2023-03-10T18:19:12.127Z,10.02
2023-03-10T18:21:44.531Z,10.07
2023-03-10T18:24:17.158Z,10.16
2023-03-10T18:26:49.730Z,10.16
2023-03-10T18:29:22.214Z,10.31
2023-03-10T18:31:55.255Z,10.26
2023-03-10T18:34:27.586Z,10.37
2023-03-10T18:36:59.860Z,10.39
2023-03-10T18:39:32.513Z,10.42
2023-03-10T18:42:05.134Z,10.42
2023-03-10T18:44:37.406Z,10.45
2023-03-10T18:47:10.336Z,10.49
2023-03-10T18:49:42.696Z,10.48
2023-03-10T18:52:15.691Z,10.52
2023-03-10T18:54:48.468Z,10.43
2023-03-10T18:57:20.822Z,10.58
2023-03-10T18:59:53.160Z,10.56
2023-03-10T19:02:26.286Z,10.62
2023-03-10T19:05:02.619Z,10.61
2023-03-10T19:07:36.036Z,10.60
2023-03-10T19:10:11.484Z,10.71
2023-03-10T19:12:43.876Z,10.71
2023-03-10T19:15:17.052Z,10.67
2023-03-10T19:17:50.295Z,10.52
2023-03-10T19:20:22.710Z,10.47
2023-03-10T19:22:55.128Z,10.53
2023-03-10T19:25:27.379Z,10.60
2023-03-10T19:27:59.690Z,10.65
2023-03-10T19:30:32.167Z,10.70
2023-03-10T19:33:05.096Z,10.71
2023-03-10T19:35:38.020Z,10.68
2023-03-10T19:38:10.563Z,10.68
2023-03-10T19:40:45.669Z,10.58
2023-03-10T19:43:18.085Z,10.54
2023-03-10T19:45:50.345Z,10.50
2023-03-10T19:48:23.382Z,10.13
2023-03-10T19:50:57.558Z,9.79
2023-03-10T19:53:30.352Z,9.70
2023-03-10T19:56:06.231Z,9.75
2023-03-10T19:58:38.637Z,9.65
2023-03-10T20:01:12.471Z,9.48
2023-03-10T20:03:45.632Z,9.33
2023-03-10T20:06:18.049Z,9.44
2023-03-10T20:08:51.205Z,9.52
2023-03-10T20:11:23.928Z,9.55
2023-03-10T20:13:56.296Z,9.43
2023-03-10T20:16:28.940Z,9.34
2023-03-10T20:19:02.034Z,9.31
2023-03-10T20:21:34.508Z,9.33
2023-03-10T20:24:07.358Z,9.21
2023-03-10T20:26:39.648Z,9.09
2023-03-10T20:29:14.492Z,9.19
2023-03-10T20:31:46.859Z,9.20
2023-03-10T20:34:21.293Z,9.30
2023-03-10T20:36:53.597Z,9.25
2023-03-10T20:39:25.899Z,9.32
2023-03-10T20:41:58.229Z,9.40
2023-03-10T20:44:30.501Z,9.42
2023-03-10T20:47:02.794Z,9.33
2023-03-10T20:49:35.789Z,9.34
2023-03-10T20:52:08.108Z,9.46
2023-03-10T20:54:40.427Z,9.37
2023-03-10T20:57:13.053Z,9.44
2023-03-10T20:59:45.363Z,9.49
2023-03-10T21:02:18.267Z,9.26
2023-03-10T21:04:51.266Z,9.44
2023-03-10T21:07:23.642Z,9.46
2023-03-10T21:09:57.358Z,9.37
2023-03-10T21:12:30.031Z,9.36
2023-03-10T21:15:03.769Z,9.44
2023-03-10T21:17:36.295Z,9.52
2023-03-10T21:20:11.656Z,9.47
2023-03-10T21:22:44.135Z,9.50
2023-03-10T21:25:19.532Z,9.28
2023-03-10T21:27:57.831Z,9.48
2023-03-10T21:30:32.811Z,9.47
2023-03-10T21:33:05.239Z,9.21
2023-03-10T21:35:39.778Z,9.38
2023-03-10T21:38:12.132Z,9.20
2023-03-10T21:40:44.704Z,9.17
2023-03-10T21:43:17.602Z,9.10
2023-03-10T21:45:49.885Z,9.06
2023-03-10T21:48:22.281Z,9.18
2023-03-10T21:50:55.237Z,9.11
2023-03-10T21:53:28.990Z,8.95
2023-03-10T21:56:01.342Z,9.02
2023-03-10T21:58:34.425Z,8.92
2023-03-10T22:01:07.313Z,8.92
2023-03-10T22:03:39.664Z,9.03
2023-03-10T22:06:12.824Z,9.05
2023-03-10T22:08:45.139Z,8.93
2023-03-10T22:11:17.550Z,8.84
2023-03-10T22:13:49.860Z,8.90
2023-03-10T22:16:22.631Z,8.90
2023-03-10T22:18:55.143Z,8.87
2023-03-10T22:21:28.184Z,8.99
2023-03-10T22:24:00.416Z,8.95
2023-03-10T22:26:32.871Z,8.84
2023-03-10T22:29:05.553Z,8.90
2023-03-10T22:31:37.985Z,8.87
2023-03-10T22:34:10.304Z,8.88
2023-03-10T22:36:43.236Z,8.86
2023-03-10T22:39:15.528Z,8.93
2023-03-10T22:41:47.884Z,8.88
2023-03-10T22:44:20.230Z,8.98
2023-03-10T22:46:52.647Z,9.02
2023-03-10T22:49:24.983Z,9.11
2023-03-10T22:51:58.352Z,9.02
2023-03-10T22:54:30.620Z,9.10
2023-03-10T22:57:03.025Z,9.08
2023-03-10T22:59:35.383Z,9.09
2023-03-10T23:02:07.960Z,9.03
2023-03-10T23:04:40.527Z,9.00
2023-03-10T23:07:13.607Z,9.12
2023-03-10T23:09:45.928Z,9.16
2023-03-10T23:12:18.211Z,9.23
2023-03-10T23:14:50.794Z,9.19
2023-03-10T23:17:23.132Z,9.08
2023-03-10T23:19:56.229Z,8.97
2023-03-10T23:22:29.206Z,9.16
2023-03-10T23:25:01.676Z,9.15
2023-03-10T23:27:34.111Z,9.11
2023-03-10T23:30:09.829Z,8.95
2023-03-10T23:32:42.576Z,9.10
2023-03-10T23:35:17.295Z,8.97
2023-03-10T23:37:51.011Z,8.91
2023-03-10T23:40:26.346Z,9.09
2023-03-10T23:43:00.235Z,9.03
2023-03-10T23:45:35.271Z,8.88
2023-03-10T23:48:11.652Z,9.02
2023-03-10T23:50:45.800Z,9.12
2023-03-10T23:53:19.898Z,9.00
2023-03-10T23:55:52.217Z,8.92
2023-03-10T23:58:24.962Z,9.10
